Time;durP1;ratioP1;P1;durP2;ratioP2;P2;SDS_P1;SDS_P2;PMS_P1;PMS_P2;Temp;Humidity;BMP_temperature;BMP_pressure;BME280_temperature;BME280_humidity;BME280_pressure;Samples;Min_cycle;Max_cycle;Signal;HPM_P1;HPM_P2
2022/10/12 00:00:18;;;;;;;11.52;2.80;;;11.70;80.70;;;;;;5030616;28;20029;-74
2022/10/12 00:02:44;;;;;;;20.67;3.28;;;11.70;80.70;;;;;;5031178;28;20087;-74
2022/10/12 00:05:10;;;;;;;14.00;3.22;;;11.70;80.60;;;;;;5012705;28;20028;-74
2022/10/12 00:07:35;;;;;;;15.20;3.70;;;11.70;80.60;;;;;;5030875;28;20029;-75
2022/10/12 00:10:02;;;;;;;11.57;3.13;;;11.70;80.70;;;;;;5020114;28;20034;-74
2022/10/12 00:12:27;;;;;;;9.63;2.38;;;11.70;80.60;;;;;;5030131;28;20036;-73
2022/10/12 00:14:53;;;;;;;13.27;2.95;;;11.60;80.40;;;;;;5025803;28;20025;-74
2022/10/12 00:17:18;;;;;;;16.17;2.90;;;11.60;81.10;;;;;;5020177;28;20034;-74
2022/10/12 00:19:45;;;;;;;14.57;3.60;;;11.60;80.60;;;;;;5031208;28;20032;-75
2022/10/12 00:22:11;;;;;;;14.38;4.57;;;11.60;80.60;;;;;;5024769;28;20606;-74
2022/10/12 00:24:36;;;;;;;15.50;3.30;;;11.60;80.80;;;;;;5030192;28;20104;-74
2022/10/12 00:27:02;;;;;;;14.70;3.38;;;11.60;81.00;;;;;;5025855;28;20032;-74
2022/10/12 00:29:27;;;;;;;13.50;3.25;;;11.60;81.00;;;;;;5028570;28;20045;-75
2022/10/12 00:31:53;;;;;;;17.38;5.40;;;11.60;81.10;;;;;;5012148;28;20547;-73
2022/10/12 00:34:19;;;;;;;12.40;3.50;;;11.50;81.00;;;;;;5024800;28;20026;-73
2022/10/12 00:36:44;;;;;;;19.88;3.50;;;11.50;81.30;;;;;;5029890;28;20128;-74
2022/10/12 00:39:10;;;;;;;15.63;3.75;;;11.50;81.40;;;;;;5017570;28;20042;-73
2022/10/12 00:41:39;;;;;;;14.57;3.15;;;11.40;81.50;;;;;;5030727;28;20021;-77
2022/10/12 00:44:35;;;;;;;12.80;3.15;;;11.40;81.40;;;;;;5014463;28;20048;-74
2022/10/12 00:47:24;;;;;;;12.90;3.88;;;11.40;81.40;;;;;;5026581;28;20473;-74
2022/10/12 00:50:28;;;;;;;18.48;3.85;;;11.30;81.40;;;;;;5030690;28;20033;-75
2022/10/12 00:52:58;;;;;;;14.45;3.20;;;11.30;81.50;;;;;;5029467;28;20060;-74
2022/10/12 00:55:26;;;;;;;10.70;3.65;;;11.30;81.60;;;;;;5030616;28;20045;-73
2022/10/12 00:57:53;;;;;;;12.57;4.32;;;11.30;81.80;;;;;;5029359;28;20052;-73
2022/10/12 01:00:20;;;;;;;10.77;3.15;;;11.30;81.90;;;;;;5030116;28;20022;-73
2022/10/12 01:02:48;;;;;;;14.90;4.13;;;11.30;82.10;;;;;;5019016;28;20029;-74
2022/10/12 01:05:17;;;;;;;20.02;4.05;;;11.20;82.10;;;;;;5027982;28;20498;-74
2022/10/12 01:07:42;;;;;;;12.23;3.53;;;11.20;82.20;;;;;;5026864;28;20103;-72
2022/10/12 01:10:09;;;;;;;13.35;4.20;;;11.20;82.20;;;;;;5029445;28;20480;-74
2022/10/12 01:12:37;;;;;;;12.65;3.75;;;11.20;82.50;;;;;;5029933;28;20021;-75
2022/10/12 01:15:04;;;;;;;14.27;3.72;;;11.20;82.60;;;;;;5029887;28;20535;-74
2022/10/12 01:18:04;;;;;;;12.32;3.25;;;11.20;82.50;;;;;;5029904;28;20691;-76
2022/10/12 01:20:41;;;;;;;14.45;3.55;;;11.20;82.80;;;;;;5010951;28;20034;-74
2022/10/12 01:23:16;;;;;;;13.07;4.07;;;11.20;82.80;;;;;;5004302;28;20058;-73
2022/10/12 01:25:50;;;;;;;10.50;3.80;;;11.20;83.00;;;;;;5010613;28;20104;-73
2022/10/12 01:28:39;;;;;;;11.45;3.80;;;11.20;83.00;;;;;;5008513;28;20033;-74
2022/10/12 01:31:24;;;;;;;10.02;4.05;;;11.20;83.10;;;;;;5008881;28;20382;-74
2022/10/12 01:33:57;;;;;;;16.42;4.18;;;11.20;83.00;;;;;;5009323;28;20026;-74
2022/10/12 01:36:34;;;;;;;13.43;4.60;;;11.20;83.10;;;;;;5009027;28;20018;-74
2022/10/12 01:39:11;;;;;;;15.65;4.00;;;11.20;83.20;;;;;;5005748;28;20026;-74
2022/10/12 01:41:59;;;;;;;10.23;4.00;;;11.20;83.10;;;;;;5007543;28;20026;-74
2022/10/12 01:44:26;;;;;;;15.35;4.60;;;11.20;83.70;;;;;;5003648;28;20026;-73
2022/10/12 01:46:54;;;;;;;13.32;3.42;;;11.20;83.00;;;;;;5008035;28;20025;-74
2022/10/12 01:49:26;;;;;;;10.38;3.45;;;11.20;82.80;;;;;;5009848;28;20042;-74
2022/10/12 01:52:10;;;;;;;15.05;3.90;;;11.20;82.80;;;;;;5009460;28;20025;-74
2022/10/12 01:54:45;;;;;;;12.25;3.47;;;11.10;82.90;;;;;;5009625;28;20018;-75
2022/10/12 01:57:27;;;;;;;10.45;3.45;;;11.10;83.10;;;;;;5008412;28;20022;-74
2022/10/12 02:00:11;;;;;;;11.93;2.95;;;11.10;83.10;;;;;;5009024;28;20055;-74
2022/10/12 02:02:55;;;;;;;13.45;3.17;;;11.10;83.20;;;;;;5006783;28;20044;-73
2022/10/12 02:05:45;;;;;;;11.50;3.13;;;11.10;83.00;;;;;;5000970;28;20096;-73
2022/10/12 02:08:49;;;;;;;17.70;4.25;;;11.10;83.00;;;;;;5009159;28;20034;-74
2022/10/12 02:11:17;;;;;;;14.95;3.10;;;11.10;83.10;;;;;;5009437;28;20042;-73
2022/10/12 02:14:04;;;;;;;11.30;3.25;;;11.10;83.10;;;;;;5009613;28;20022;-73
2022/10/12 02:16:36;;;;;;;13.48;3.58;;;11.10;83.10;;;;;;5009151;28;20026;-73
2022/10/12 02:19:05;;;;;;;10.63;3.50;;;11.10;82.90;;;;;;5005590;28;20108;-73
2022/10/12 02:21:33;;;;;;;14.00;4.13;;;11.10;82.90;;;;;;5015298;28;20041;-74
2022/10/12 02:24:04;;;;;;;11.40;3.45;;;11.10;82.90;;;;;;5028391;28;20033;-73
2022/10/12 02:26:30;;;;;;;;;;;11.10;82.80;;;;;;5030106;28;20492;-74
2022/10/12 02:28:59;;;;;;;10.70;2.85;;;11.10;82.50;;;;;;5028211;28;20020;-73
2022/10/12 02:31:33;;;;;;;14.05;3.30;;;11.10;82.40;;;;;;5029092;28;20091;-73
2022/10/12 02:34:13;;;;;;;16.33;4.45;;;11.10;82.50;;;;;;5026968;28;20025;-73
2022/10/12 02:36:50;;;;;;;15.93;3.85;;;11.10;82.70;;;;;;5029167;28;20041;-74
2022/10/12 02:39:39;;;;;;;15.27;4.05;;;11.10;82.80;;;;;;5024555;28;20065;-74
2022/10/12 02:42:11;;;;;;;14.63;3.15;;;11.10;82.70;;;;;;5025765;28;20026;-74
2022/10/12 02:44:38;;;;;;;14.48;2.75;;;11.10;82.50;;;;;;5029786;28;20495;-74
2022/10/12 02:47:07;;;;;;;12.70;2.40;;;11.10;82.60;;;;;;5026927;28;20029;-74
2022/10/12 02:49:35;;;;;;;16.08;2.97;;;11.10;82.70;;;;;;5023935;28;20037;-74
2022/10/12 02:52:03;;;;;;;11.63;3.75;;;11.10;82.90;;;;;;5024152;28;20053;-75
2022/10/12 02:54:30;;;;;;;11.68;3.50;;;11.10;83.00;;;;;;5017090;28;20063;-74
2022/10/12 02:56:56;;;;;;;12.60;3.10;;;11.10;83.00;;;;;;5029513;28;20040;-74
2022/10/12 02:59:22;;;;;;;12.85;3.05;;;11.10;83.10;;;;;;5028947;28;20163;-73
2022/10/12 03:01:48;;;;;;;13.10;3.42;;;11.10;83.10;;;;;;5024642;28;20053;-74
2022/10/12 03:04:15;;;;;;;20.02;3.72;;;11.10;83.20;;;;;;5010657;28;20041;-74
2022/10/12 03:06:41;;;;;;;10.95;3.53;;;11.10;82.90;;;;;;5007047;28;20029;-74
2022/10/12 03:09:07;;;;;;;13.02;4.35;;;11.10;82.90;;;;;;5026471;28;20029;-73
2022/10/12 03:11:33;;;;;;;12.98;3.53;;;11.10;83.00;;;;;;5028280;28;20541;-74
2022/10/12 03:13:59;;;;;;;13.75;3.97;;;11.10;82.90;;;;;;5032123;28;20055;-74
2022/10/12 03:16:24;;;;;;;13.75;4.00;;;11.10;82.80;;;;;;5032043;28;20032;-74
2022/10/12 03:18:51;;;;;;;12.38;2.90;;;11.10;82.60;;;;;;5031958;28;20041;-73
2022/10/12 03:21:16;;;;;;;17.10;3.30;;;11.10;82.50;;;;;;5032224;28;20831;-74
2022/10/12 03:23:42;;;;;;;13.02;3.53;;;11.10;82.40;;;;;;5032537;28;20029;-75
2022/10/12 03:26:08;;;;;;;12.95;3.58;;;11.10;82.40;;;;;;5033128;28;20013;-73
2022/10/12 03:28:34;;;;;;;12.57;2.92;;;11.00;82.50;;;;;;5032968;28;20057;-74
2022/10/12 03:31:00;;;;;;;15.50;3.60;;;11.00;82.50;;;;;;5032179;28;20044;-74
2022/10/12 03:33:26;;;;;;;14.82;3.65;;;11.00;82.40;;;;;;5014162;28;20404;-73
2022/10/12 03:35:51;;;;;;;15.43;3.72;;;10.90;82.40;;;;;;5032880;28;20021;-74
2022/10/12 03:38:18;;;;;;;16.77;3.67;;;10.90;82.50;;;;;;5013986;28;20463;-73
2022/10/12 03:40:44;;;;;;;16.45;4.00;;;10.80;82.30;;;;;;5032978;28;20044;-72
2022/10/12 03:43:11;;;;;;;11.35;3.63;;;10.80;82.40;;;;;;5015126;28;20071;-73
2022/10/12 03:45:37;;;;;;;13.68;3.63;;;10.80;82.40;;;;;;5030992;28;20057;-73
2022/10/12 03:48:06;;;;;;;14.90;4.53;;;10.80;82.40;;;;;;5031104;28;20048;-72
2022/10/12 03:50:35;;;;;;;12.20;3.97;;;10.70;82.30;;;;;;5024185;28;20127;-74
2022/10/12 03:53:03;;;;;;;18.98;5.45;;;10.70;82.30;;;;;;5030608;28;20037;-74
2022/10/12 03:55:28;;;;;;;14.35;4.28;;;10.70;82.40;;;;;;5033050;28;20030;-73
2022/10/12 03:57:54;;;;;;;16.65;4.95;;;10.60;82.50;;;;;;5032785;28;20033;-72
2022/10/12 04:00:20;;;;;;;19.13;5.28;;;10.60;82.70;;;;;;5000655;28;20037;-73
2022/10/12 04:02:45;;;;;;;16.95;4.80;;;10.60;82.80;;;;;;5030453;28;20053;-73
2022/10/12 04:05:11;;;;;;;21.52;6.55;;;10.50;82.70;;;;;;5019783;28;20028;-73
2022/10/12 04:07:36;;;;;;;17.52;5.50;;;10.50;82.80;;;;;;5016036;28;20076;-73
2022/10/12 04:10:03;;;;;;;15.50;5.75;;;10.50;82.90;;;;;;5001596;28;20037;-72
2022/10/12 04:12:29;;;;;;;18.60;6.20;;;10.40;82.80;;;;;;5030915;28;20025;-73
2022/10/12 04:14:55;;;;;;;11.07;5.00;;;10.40;82.80;;;;;;5030841;28;20122;-74
2022/10/12 04:17:20;;;;;;;15.60;5.07;;;10.40;82.80;;;;;;5011007;28;20682;-74
2022/10/12 04:19:47;;;;;;;14.68;5.72;;;10.40;82.90;;;;;;5029971;28;20057;-74
2022/10/12 04:22:13;;;;;;;17.27;6.88;;;10.40;82.90;;;;;;5028490;28;20050;-73
2022/10/12 04:24:38;;;;;;;18.38;6.68;;;10.30;82.80;;;;;;5028787;28;20072;-73
2022/10/12 04:27:04;;;;;;;14.70;6.50;;;10.30;83.00;;;;;;5011861;28;20104;-72
2022/10/12 04:29:29;;;;;;;20.48;7.78;;;10.30;83.10;;;;;;5029736;28;20065;-73
2022/10/12 04:31:55;;;;;;;23.85;8.85;;;10.30;83.10;;;;;;5030419;28;20345;-73
2022/10/12 04:34:21;;;;;;;20.92;9.07;;;10.20;83.20;;;;;;5029475;28;20277;-74
2022/10/12 04:36:46;;;;;;;25.13;9.32;;;10.20;83.30;;;;;;5030591;28;20119;-73
2022/10/12 04:39:12;;;;;;;19.88;8.95;;;10.20;83.40;;;;;;5029095;28;20498;-75
2022/10/12 04:41:38;;;;;;;17.45;8.93;;;10.20;83.60;;;;;;5030068;28;20081;-73
2022/10/12 04:44:05;;;;;;;23.73;9.77;;;10.20;83.70;;;;;;5030241;28;20026;-74
2022/10/12 04:46:31;;;;;;;20.95;9.30;;;10.20;83.80;;;;;;5030006;28;20380;-74
2022/10/12 04:48:57;;;;;;;17.40;8.50;;;10.10;83.70;;;;;;5024117;28;20058;-74
2022/10/12 04:51:22;;;;;;;20.35;9.52;;;10.20;83.90;;;;;;5022966;28;20480;-73
2022/10/12 04:53:48;;;;;;;19.80;8.88;;;10.10;83.90;;;;;;5026817;28;20111;-73
2022/10/12 04:56:13;;;;;;;26.90;9.32;;;10.10;83.90;;;;;;5029579;28;20025;-74
2022/10/12 04:58:39;;;;;;;26.20;11.13;;;10.10;83.80;;;;;;5026815;28;20049;-73
2022/10/12 05:01:05;;;;;;;18.98;9.32;;;10.10;83.90;;;;;;5029853;28;20037;-75
2022/10/12 05:03:30;;;;;;;21.70;8.13;;;10.10;83.70;;;;;;5030225;28;20391;-74
2022/10/12 05:05:56;;;;;;;19.38;8.05;;;10.00;83.20;;;;;;5030602;28;20044;-73
2022/10/12 05:08:22;;;;;;;21.92;8.25;;;10.00;83.40;;;;;;5029405;28;20021;-73
2022/10/12 05:10:47;;;;;;;18.73;8.65;;;10.00;83.60;;;;;;5030890;28;20460;-72
2022/10/12 05:13:13;;;;;;;16.90;8.48;;;9.90;83.60;;;;;;5029920;28;20023;-74
2022/10/12 05:15:41;;;;;;;18.98;9.23;;;10.00;83.60;;;;;;5028731;28;20125;-73
2022/10/12 05:18:07;;;;;;;17.30;7.45;;;9.90;83.60;;;;;;5030558;28;20088;-73
2022/10/12 05:20:33;;;;;;;18.20;7.88;;;9.90;83.60;;;;;;5029352;28;20021;-73
2022/10/12 05:22:58;;;;;;;22.60;8.60;;;9.90;83.70;;;;;;5029162;28;20045;-73
2022/10/12 05:25:24;;;;;;;19.75;7.82;;;9.90;83.70;;;;;;5028916;28;20025;-73
2022/10/12 05:27:50;;;;;;;23.63;8.70;;;9.90;83.90;;;;;;5030037;28;20034;-73
2022/10/12 05:30:18;;;;;;;19.52;8.77;;;9.90;84.00;;;;;;5022426;28;20041;-73
2022/10/12 05:32:43;;;;;;;17.88;9.02;;;9.90;83.90;;;;;;5029157;28;20450;-73
2022/10/12 05:35:10;;;;;;;18.67;8.88;;;9.90;84.00;;;;;;5027413;28;20109;-73
2022/10/12 05:37:40;;;;;;;19.45;9.00;;;9.80;83.90;;;;;;5029807;28;20494;-72
2022/10/12 05:40:07;;;;;;;20.38;9.90;;;9.80;84.00;;;;;;5030254;28;20542;-73
2022/10/12 05:42:33;;;;;;;20.27;10.38;;;9.90;84.10;;;;;;5031895;28;20032;-74
2022/10/12 05:44:59;;;;;;;22.10;10.32;;;9.90;84.30;;;;;;5029738;28;20022;-73
2022/10/12 05:47:25;;;;;;;18.80;9.77;;;9.80;84.50;;;;;;5027922;28;20033;-72
2022/10/12 05:49:51;;;;;;;21.45;9.82;;;9.80;84.50;;;;;;5028965;28;20782;-72
2022/10/12 05:52:16;;;;;;;23.60;10.48;;;9.80;84.60;;;;;;5029003;28;20030;-73
2022/10/12 05:54:42;;;;;;;19.10;10.48;;;9.80;84.70;;;;;;5029221;28;20018;-72
2022/10/12 05:57:11;;;;;;;21.05;10.80;;;9.80;84.90;;;;;;5010967;28;20033;-73
2022/10/12 05:59:37;;;;;;;19.37;9.80;;;9.80;85.00;;;;;;5021611;28;20029;-74
2022/10/12 06:02:03;;;;;;;23.20;10.90;;;9.80;85.10;;;;;;5026787;28;20060;-73
2022/10/12 06:04:29;;;;;;;27.13;11.25;;;9.80;85.20;;;;;;5022342;28;20040;-73
2022/10/12 06:06:54;;;;;;;19.27;10.20;;;9.90;85.30;;;;;;5028188;28;20021;-73
2022/10/12 06:09:20;;;;;;;18.80;9.55;;;9.90;85.20;;;;;;5028254;28;20084;-74
2022/10/12 06:11:45;;;;;;;20.88;8.43;;;9.90;85.00;;;;;;5010859;28;20563;-73
2022/10/12 06:14:11;;;;;;;18.45;11.55;;;9.90;85.10;;;;;;5028590;28;20100;-74
2022/10/12 06:16:38;;;;;;;23.85;10.88;;;10.00;85.40;;;;;;5028188;28;20140;-73
2022/10/12 06:19:03;;;;;;;19.77;10.70;;;10.00;86.40;;;;;;5027595;28;20538;-73
2022/10/12 06:21:29;;;;;;;22.20;13.00;;;10.10;86.20;;;;;;5027787;28;20057;-73
2022/10/12 06:23:55;;;;;;;19.85;9.15;;;10.20;86.20;;;;;;5029315;28;20082;-72
2022/10/12 06:26:20;;;;;;;8.10;3.90;;;10.30;86.10;;;;;;5027589;28;20013;-73
2022/10/12 06:28:46;;;;;;;6.55;2.30;;;10.60;84.80;;;;;;5021921;28;20078;-73
2022/10/12 06:31:12;;;;;;;8.88;2.78;;;10.80;82.20;;;;;;5024436;28;20041;-74
2022/10/12 06:33:38;;;;;;;20.63;8.07;;;11.00;81.30;;;;;;5018352;28;20426;-72
2022/10/12 06:36:04;;;;;;;18.63;8.75;;;11.20;81.30;;;;;;5024327;28;20021;-72
2022/10/12 06:38:29;;;;;;;22.80;10.23;;;11.30;82.40;;;;;;5028087;28;20025;-73
2022/10/12 06:40:55;;;;;;;23.42;10.02;;;11.40;82.90;;;;;;5028299;28;20520;-73
2022/10/12 06:43:24;;;;;;;19.08;9.00;;;11.60;82.60;;;;;;5025744;28;20542;-72
2022/10/12 06:45:49;;;;;;;26.45;9.90;;;11.70;81.60;;;;;;5028046;28;20033;-73
2022/10/12 06:48:15;;;;;;;19.38;9.27;;;11.80;80.70;;;;;;5023764;28;20025;-73
2022/10/12 06:50:41;;;;;;;15.75;9.02;;;11.80;80.30;;;;;;5028293;28;20061;-74
2022/10/12 06:53:06;;;;;;;19.83;9.98;;;11.80;80.20;;;;;;5026544;28;20022;-73
2022/10/12 06:55:32;;;;;;;16.15;6.97;;;11.80;80.00;;;;;;5027907;28;20025;-71
2022/10/12 06:57:58;;;;;;;15.90;9.77;;;11.70;80.00;;;;;;5027264;28;20041;-73
2022/10/12 07:00:24;;;;;;;21.75;10.00;;;11.70;80.20;;;;;;5027719;28;20032;-72
2022/10/12 07:02:51;;;;;;;18.90;10.48;;;11.60;80.50;;;;;;5027827;28;20033;-71
2022/10/12 07:05:17;;;;;;;21.60;11.30;;;11.60;81.60;;;;;;5027019;28;20077;-73
2022/10/12 07:07:43;;;;;;;25.70;12.30;;;11.60;81.90;;;;;;5026930;28;20037;-72
2022/10/12 07:10:09;;;;;;;19.73;11.00;;;11.70;81.60;;;;;;5024694;28;20055;-73
2022/10/12 07:12:36;;;;;;;22.50;10.10;;;11.70;81.30;;;;;;5026872;28;20115;-73
2022/10/12 07:15:06;;;;;;;21.83;12.02;;;11.60;81.20;;;;;;5023420;28;20025;-72
2022/10/12 07:17:31;;;;;;;21.58;11.30;;;11.60;81.40;;;;;;5028077;28;20033;-73
2022/10/12 07:19:57;;;;;;;21.65;12.35;;;11.60;81.70;;;;;;5027131;28;20029;-72
2022/10/12 07:22:23;;;;;;;22.92;11.95;;;11.60;81.60;;;;;;5026442;28;20128;-70
2022/10/12 07:24:48;;;;;;;25.63;11.55;;;11.60;81.60;;;;;;5021246;28;20502;-72
2022/10/12 07:27:14;;;;;;;22.50;12.38;;;11.60;82.30;;;;;;5026176;28;20470;-74
2022/10/12 07:29:40;;;;;;;23.77;13.45;;;11.70;82.40;;;;;;5024944;28;20033;-73
2022/10/12 07:32:06;;;;;;;22.73;11.38;;;11.70;81.80;;;;;;5004986;28;20108;-73
2022/10/12 07:34:32;;;;;;;24.50;11.75;;;11.80;81.40;;;;;;5026479;28;20056;-73
2022/10/12 07:36:57;;;;;;;18.77;11.45;;;11.80;81.40;;;;;;5024255;28;20704;-72
2022/10/12 07:39:23;;;;;;;23.98;11.27;;;11.80;81.40;;;;;;5020437;28;20030;-73
2022/10/12 07:41:50;;;;;;;23.08;11.68;;;11.80;81.40;;;;;;5023619;28;20033;-73
2022/10/12 07:44:19;;;;;;;25.23;12.40;;;11.80;80.80;;;;;;5025435;28;20033;-74
2022/10/12 07:46:45;;;;;;;13.65;8.23;;;11.70;80.60;;;;;;5026459;28;20032;-73
2022/10/12 07:49:12;;;;;;;19.95;10.18;;;11.60;80.60;;;;;;5025669;28;20032;-73
2022/10/12 07:51:38;;;;;;;20.60;12.63;;;11.50;81.30;;;;;;5020767;28;20029;-73
2022/10/12 07:54:04;;;;;;;23.48;13.57;;;11.40;81.70;;;;;;5027951;28;20574;-74
2022/10/12 07:56:30;;;;;;;26.45;12.82;;;11.30;81.70;;;;;;5026222;28;20037;-72
2022/10/12 07:58:57;;;;;;;25.35;12.75;;;11.30;82.50;;;;;;5029888;28;20057;-72
2022/10/12 08:01:26;;;;;;;25.58;13.25;;;11.20;82.40;;;;;;5024918;28;20037;-73
2022/10/12 08:03:53;;;;;;;24.17;12.88;;;11.20;82.40;;;;;;5028815;28;20032;-72
2022/10/12 08:06:21;;;;;;;24.13;13.23;;;11.20;83.10;;;;;;5028546;28;20025;-73
2022/10/12 08:08:47;;;;;;;23.25;11.73;;;11.30;83.30;;;;;;5028595;28;20033;-73
2022/10/12 08:11:13;;;;;;;26.35;15.02;;;11.40;83.00;;;;;;5029295;28;20160;-73
2022/10/12 08:13:41;;;;;;;30.73;15.05;;;11.40;82.50;;;;;;5029063;28;20057;-73
2022/10/12 08:16:10;;;;;;;23.48;12.77;;;11.50;82.50;;;;;;5013049;28;20060;-72
2022/10/12 08:18:36;;;;;;;26.27;13.10;;;11.60;83.50;;;;;;5025923;28;20033;-72
2022/10/12 08:21:06;;;;;;;25.83;12.93;;;11.90;82.60;;;;;;5031183;28;20443;-71
2022/10/12 08:23:35;;;;;;;;;;;12.10;81.90;;;;;;5030033;28;20033;-73
2022/10/12 08:26:04;;;;;;;24.20;14.45;;;12.30;80.30;;;;;;5029262;28;19916;-73
2022/10/12 08:28:30;;;;;;;25.02;16.60;;;12.30;79.40;;;;;;5031012;28;20028;-72
2022/10/12 08:30:56;;;;;;;21.73;13.30;;;12.50;80.40;;;;;;5030959;28;20179;-73
2022/10/12 08:33:22;;;;;;;29.50;14.23;;;12.80;79.70;;;;;;5029302;28;20718;-71
2022/10/12 08:35:48;;;;;;;24.25;13.32;;;13.00;78.70;;;;;;5029121;28;20033;-72
2022/10/12 08:38:15;;;;;;;25.55;13.57;;;13.20;77.90;;;;;;5029317;28;20065;-72
2022/10/12 08:41:04;;;;;;;20.48;11.60;;;13.50;77.00;;;;;;5028292;28;20025;-73
2022/10/12 08:43:45;;;;;;;21.58;12.93;;;13.70;76.20;;;;;;5003637;28;20041;-72
2022/10/12 08:46:11;;;;;;;21.48;13.10;;;13.80;75.70;;;;;;5026098;28;20026;-72
2022/10/12 08:48:55;;;;;;;23.63;12.25;;;13.90;74.10;;;;;;5027877;28;20025;-72
2022/10/12 08:51:28;;;;;;;21.65;11.20;;;14.00;74.20;;;;;;5016194;28;20029;-71
2022/10/12 08:54:04;;;;;;;24.58;12.70;;;14.00;73.90;;;;;;5027001;28;20053;-73
2022/10/12 08:56:29;;;;;;;24.50;12.77;;;13.80;73.70;;;;;;5026648;28;20025;-73
2022/10/12 08:58:55;;;;;;;22.23;12.82;;;13.60;74.50;;;;;;5022660;28;20048;-71
2022/10/12 09:01:35;;;;;;;24.35;13.10;;;13.60;75.50;;;;;;5026140;28;20226;-73
2022/10/12 09:04:04;;;;;;;27.75;16.88;;;13.70;75.70;;;;;;5017671;28;20021;-73
2022/10/12 09:06:38;;;;;;;20.52;12.23;;;13.90;75.00;;;;;;5027245;28;20036;-73
2022/10/12 09:09:40;;;;;;;27.08;12.35;;;14.10;74.70;;;;;;5027393;28;20044;-73
2022/10/12 09:12:20;;;;;;;19.08;10.52;;;14.20;74.40;;;;;;5016837;28;20448;-73
2022/10/12 09:14:49;;;;;;;21.42;10.65;;;14.40;75.10;;;;;;5028905;28;20021;-73
2022/10/12 09:17:27;;;;;;;15.75;9.32;;;14.80;74.60;;;;;;5028890;28;20430;-72
2022/10/12 09:20:02;;;;;;;16.58;9.13;;;15.00;71.80;;;;;;5028674;28;20040;-73
2022/10/12 09:22:29;;;;;;;22.88;10.57;;;15.30;71.30;;;;;;5028396;28;20153;-73
2022/10/12 09:24:56;;;;;;;19.67;10.13;;;15.40;70.70;;;;;;5029036;28;20034;-71
2022/10/12 09:27:22;;;;;;;16.48;9.70;;;15.70;70.30;;;;;;5027792;28;20395;-74
2022/10/12 09:29:55;;;;;;;22.50;10.25;;;15.90;69.50;;;;;;5028228;28;20721;-72
2022/10/12 09:32:32;;;;;;;17.38;9.88;;;16.00;69.20;;;;;;5027316;28;20026;-73
2022/10/12 09:34:58;;;;;;;15.43;8.70;;;16.20;68.70;;;;;;5026744;28;20140;-73
2022/10/12 09:37:28;;;;;;;22.00;9.52;;;16.40;68.40;;;;;;5019583;28;20108;-72
2022/10/12 09:39:54;;;;;;;17.00;9.23;;;16.60;68.10;;;;;;5026694;28;20117;-73
2022/10/12 09:42:20;;;;;;;24.85;10.07;;;16.70;65.70;;;;;;5027271;28;20117;-73
2022/10/12 09:44:48;;;;;;;16.35;7.57;;;16.70;65.90;;;;;;5010891;28;20021;-74
2022/10/12 09:47:20;;;;;;;19.52;8.80;;;16.80;66.50;;;;;;5028513;28;20471;-73
2022/10/12 09:49:51;;;;;;;18.63;8.57;;;17.10;65.60;;;;;;5028464;28;20041;-73
2022/10/12 09:52:40;;;;;;;13.48;7.78;;;17.20;64.80;;;;;;5028290;28;20021;-73
2022/10/12 09:55:25;;;;;;;16.42;9.43;;;17.30;65.50;;;;;;5027192;28;20029;-73
2022/10/12 09:57:56;;;;;;;13.25;7.75;;;17.30;64.30;;;;;;5028977;28;20680;-71
2022/10/12 10:00:27;;;;;;;21.27;9.60;;;17.40;65.10;;;;;;5026722;28;20021;-73
2022/10/12 10:02:55;;;;;;;18.88;8.60;;;17.30;62.90;;;;;;5028241;28;20033;-73
2022/10/12 10:05:30;;;;;;;19.75;8.43;;;17.40;62.60;;;;;;5027181;28;20037;-73
2022/10/12 10:08:13;;;;;;;20.92;9.70;;;17.30;62.40;;;;;;5027168;28;20041;-73
2022/10/12 10:11:00;;;;;;;20.10;9.90;;;17.30;62.70;;;;;;5026850;28;20033;-73
2022/10/12 10:13:32;;;;;;;17.67;8.45;;;17.50;62.60;;;;;;5015874;28;20568;-72
2022/10/12 10:16:06;;;;;;;17.30;7.85;;;17.60;62.60;;;;;;5025752;28;20802;-73
2022/10/12 10:18:41;;;;;;;16.38;8.38;;;17.70;62.90;;;;;;5027731;28;20025;-72
2022/10/12 10:21:10;;;;;;;23.52;10.57;;;18.00;62.90;;;;;;5027122;28;20033;-74
2022/10/12 10:23:50;;;;;;;15.00;7.75;;;18.00;61.60;;;;;;5028371;28;20479;-73
2022/10/12 10:26:17;;;;;;;;;;;17.80;62.00;;;;;;5028459;28;20112;-72
2022/10/12 10:28:45;;;;;;;18.10;9.43;;;17.80;62.80;;;;;;5027649;28;19916;-72
2022/10/12 10:31:15;;;;;;;14.43;7.60;;;17.90;62.80;;;;;;5027626;28;20037;-72
2022/10/12 10:33:42;;;;;;;17.83;10.27;;;17.90;62.40;;;;;;5020882;28;20069;-71
2022/10/12 10:36:22;;;;;;;20.55;10.15;;;18.00;61.80;;;;;;5025901;28;20053;-73
2022/10/12 10:39:07;;;;;;;24.15;10.93;;;18.20;61.90;;;;;;5026627;28;20029;-73
2022/10/12 10:41:38;;;;;;;19.35;9.10;;;18.30;61.10;;;;;;5024309;28;20030;-72
2022/10/12 10:44:17;;;;;;;12.77;6.68;;;18.50;61.40;;;;;;5027519;28;20029;-72
2022/10/12 10:46:45;;;;;;;16.95;9.32;;;18.50;62.20;;;;;;5027596;28;20480;-72
2022/10/12 10:49:32;;;;;;;13.27;7.25;;;18.60;61.00;;;;;;5025986;28;20032;-71
2022/10/12 10:52:00;;;;;;;9.90;5.53;;;18.60;65.90;;;;;;5027582;28;20064;-72
2022/10/12 10:54:29;;;;;;;13.57;5.10;;;18.70;71.90;;;;;;5009267;28;20954;-72
2022/10/12 10:57:03;;;;;;;14.65;7.93;;;18.70;72.20;;;;;;4990951;28;20087;-72
2022/10/12 10:59:37;;;;;;;16.77;10.30;;;18.70;70.70;;;;;;5015396;28;20037;-73
2022/10/12 11:02:45;;;;;;;23.90;11.38;;;18.60;62.60;;;;;;5026746;28;20026;-73
2022/10/12 11:05:23;;;;;;;20.40;10.98;;;18.70;62.20;;;;;;4989270;28;20037;-73
2022/10/12 11:07:53;;;;;;;18.65;8.60;;;18.80;60.00;;;;;;5025785;28;20021;-73
2022/10/12 11:10:39;;;;;;;22.88;11.10;;;18.90;62.70;;;;;;5026393;28;20500;-72
2022/10/12 11:13:22;;;;;;;21.17;10.00;;;18.80;59.20;;;;;;5026073;28;20117;-74
2022/10/12 11:15:56;;;;;;;19.80;9.35;;;18.80;59.30;;;;;;5007783;28;20033;-73
2022/10/12 11:18:21;;;;;;;21.88;9.32;;;18.90;59.90;;;;;;5027114;28;20200;-72
2022/10/12 11:21:16;;;;;;;10.65;5.20;;;19.00;58.10;;;;;;5027066;28;20486;-72
2022/10/12 11:23:54;;;;;;;18.75;9.63;;;19.10;64.40;;;;;;4982132;28;20053;-73
2022/10/12 11:26:28;;;;;;;22.80;9.55;;;19.20;59.40;;;;;;5026391;28;20028;-75
2022/10/12 11:28:57;;;;;;;14.43;8.05;;;19.30;57.20;;;;;;5016568;28;20014;-74
2022/10/12 11:31:31;;;;;;;14.20;7.22;;;19.50;59.40;;;;;;5009005;28;20038;-74
2022/10/12 11:34:02;;;;;;;11.60;6.70;;;19.80;58.70;;;;;;5025446;28;20044;-72
2022/10/12 11:36:30;;;;;;;13.20;7.07;;;20.10;57.70;;;;;;5016913;28;20113;-75
2022/10/12 11:39:06;;;;;;;11.43;6.18;;;20.10;57.40;;;;;;5030556;28;20033;-73
2022/10/12 11:41:44;;;;;;;11.52;4.78;;;20.20;58.20;;;;;;5024858;28;20096;-73
2022/10/12 11:44:16;;;;;;;14.38;6.50;;;20.50;65.50;;;;;;5019185;28;20021;-73
2022/10/12 11:47:01;;;;;;;16.15;7.88;;;20.60;62.20;;;;;;5030934;28;20029;-74
2022/10/12 11:49:43;;;;;;;11.68;4.28;;;20.70;56.20;;;;;;5029197;28;20032;-74
2022/10/12 11:52:10;;;;;;;16.15;7.57;;;20.80;62.40;;;;;;5030998;28;20052;-73
2022/10/12 11:54:39;;;;;;;10.70;4.75;;;20.80;61.20;;;;;;5031572;28;20022;-75
2022/10/12 11:57:20;;;;;;;13.07;6.03;;;20.80;64.60;;;;;;5031318;28;20459;-73
2022/10/12 11:59:58;;;;;;;15.25;6.90;;;20.90;62.40;;;;;;5030499;28;20423;-73
2022/10/12 12:02:30;;;;;;;14.43;7.50;;;21.00;56.30;;;;;;5029812;28;20083;-74
2022/10/12 12:04:56;;;;;;;10.25;3.97;;;21.00;56.30;;;;;;5023957;28;20480;-73
2022/10/12 12:07:44;;;;;;;7.65;4.35;;;21.00;65.50;;;;;;5011700;28;20132;-73
2022/10/12 12:10:42;;;;;;;17.02;7.97;;;21.00;65.10;;;;;;5028838;28;20033;-72
2022/10/12 12:13:13;;;;;;;9.18;4.35;;;21.10;61.20;;;;;;4992618;28;20041;-74
2022/10/12 12:15:59;;;;;;;9.20;3.92;;;21.00;69.90;;;;;;5019783;28;20061;-73
2022/10/12 12:18:32;;;;;;;13.95;5.03;;;20.80;72.70;;;;;;5026420;28;20025;-74
2022/10/12 12:21:08;;;;;;;13.13;7.22;;;20.60;72.90;;;;;;5030649;28;20039;-73
2022/10/12 12:23:53;;;;;;;12.55;7.45;;;20.30;69.60;;;;;;5030097;28;20126;-72
2022/10/12 12:26:22;;;;;;;16.40;8.65;;;20.20;68.80;;;;;;5022311;28;20034;-74
2022/10/12 12:29:07;;;;;;;10.63;5.20;;;20.20;68.70;;;;;;5012575;28;20037;-73
2022/10/12 12:31:33;;;;;;;11.80;5.30;;;20.30;71.50;;;;;;5026644;28;20049;-73
2022/10/12 12:34:11;;;;;;;18.67;9.73;;;20.60;70.30;;;;;;5027640;28;20037;-74
2022/10/12 12:36:43;;;;;;;15.57;8.65;;;20.60;57.80;;;;;;5030057;28;20075;-73
2022/10/12 12:39:32;;;;;;;13.25;7.13;;;20.70;62.30;;;;;;5028221;28;20212;-73
2022/10/12 12:42:02;;;;;;;15.77;8.63;;;20.60;59.60;;;;;;5027724;28;20769;-73
2022/10/12 12:44:42;;;;;;;21.37;11.17;;;20.40;56.50;;;;;;5028150;28;20700;-72
2022/10/12 12:47:08;;;;;;;22.63;10.50;;;20.20;56.90;;;;;;5023972;28;20029;-74
2022/10/12 12:49:53;;;;;;;14.43;8.15;;;20.10;58.50;;;;;;5027714;28;20056;-74
2022/10/12 12:52:31;;;;;;;17.02;5.88;;;20.00;66.50;;;;;;5025954;28;20128;-73